Impacts TAF Board
For situational awareness. Not to be used for flight planning purposes.
IDs:

KCXO - Conroe/Executive Arp, TX, US

Issued at 0702 UTC 26 Jan 2020
Updated at 0902 UTC 26 Jan 2020
Potential Impact None Slight Moderate High
Time0853Z 26/10Z 26/11Z 26/12Z 26/13Z 26/14Z 26/15Z 26/16Z 26/17Z 26/18Z 26/19Z 26/20Z 26/21Z 26/22Z>>
Type OBS PRVL PRVL PRVL PRVL PRVL PRVL PRVL PRVL PRVL PRVL PRVL PRVL PRVL
VIS 9 4 4 4 4 4 4 >6 >6 >6 >6 >6 >6 >6
CIG 6 8 8 8 5 5 5 15 15 15 15 -- -- --
Cover OVC OVC OVC OVC OVC OVC OVC OVC OVC OVC OVC SCT SCT SCT
FltCat IFR IFR IFR IFR IFR IFR IFR MVFR MVFR MVFR MVFR VFR VFR VFR
WX -RA -SHRA BR -SHRA BR -SHRA BR BR BR BR -- -- -- -- -- -- --
WDir 110 140 140 140 VRB VRB VRB 250 250 250 250 320 320 320
WSpd 3 6 6 6 0 0 0 6 6 6 6 7 7 7
WGst -- -- -- -- -- -- -- -- -- -- -- -- -- --
Raw TAF
KCXO 260702Z 2607/2706 11003KT 5SM -RA BR VCSH OVC018
  FM260900 14006KT 4SM -SHRA BR OVC008
  FM261300 00000KT 4SM BR OVC005
  FM261600 25006KT P6SM SCT008 OVC015
  FM262000 32007KT P6SM SCT020


Raw METAR
KCXO 260853Z AUTO 11003KT 9SM -RA BKN006 OVC011 13/13 A2999 RMK AO2 SLP153 P0002 60014 T01330128 56018
KCXO 260816Z AUTO 00000KT 10SM -RA BKN008 OVC012 13/12 A3000 RMK AO2 CIG 006V012 P0000 T01330122
KCXO 260801Z AUTO 10003KT 10SM -RA OVC012 13/12 A3000 RMK AO2 P0000 T01280122
KCXO 260753Z AUTO 11003KT 10SM VCTS -RA SCT009 OVC014 13/12 A3000 RMK AO2 SLP156 P0003 T01280122
KCXO 260740Z AUTO 00000KT 10SM VCTS -RA BKN009 OVC016 13/12 A3001 RMK AO2 P0003 T01330122
KCXO 260737Z AUTO 00000KT 10SM -RA BKN010 OVC016 13/12 A3001 RMK AO2 P0003 T01280122
KCXO 260653Z AUTO 11003KT 5SM -RA BR OVC018 13/12 A3002 RMK AO2 SLP163 P0009 T01280117

METAR Board
Radar Display
Forecast Discussion
For situational awareness. Not to be used for flight planning purposes.